createdAt,value
2022-10-16T00:01:36.218Z,14.90
2022-10-16T00:04:05.018Z,14.80
2022-10-16T00:06:33.459Z,14.70
2022-10-16T00:09:01.649Z,14.80
2022-10-16T00:11:34.390Z,14.80
2022-10-16T00:14:04.401Z,14.80
2022-10-16T00:16:32.935Z,14.90
2022-10-16T00:19:00.756Z,14.90
2022-10-16T00:21:30.831Z,14.90
2022-10-16T00:24:01.060Z,15.00
2022-10-16T00:26:31.900Z,14.90
2022-10-16T00:29:00.109Z,14.70
2022-10-16T00:31:28.388Z,14.80
2022-10-16T00:33:56.372Z,14.80
2022-10-16T00:36:25.988Z,14.70
2022-10-16T00:38:55.581Z,14.80
2022-10-16T00:41:25.627Z,14.80
2022-10-16T00:43:56.588Z,15.00
2022-10-16T00:46:27.528Z,14.90
2022-10-16T00:49:01.633Z,14.90
2022-10-16T00:51:33.751Z,14.90
2022-10-16T00:54:02.442Z,14.90
2022-10-16T00:56:30.442Z,14.90
2022-10-16T00:59:01.367Z,14.90
2022-10-16T01:01:29.852Z,14.90
2022-10-16T01:03:57.657Z,14.90
2022-10-16T01:06:30.489Z,14.90
2022-10-16T01:09:15.809Z,14.90
2022-10-16T01:11:50.663Z,15.00
2022-10-16T01:14:25.511Z,15.00
2022-10-16T01:16:59.433Z,15.00
2022-10-16T01:19:52.139Z,14.70
2022-10-16T01:22:25.477Z,14.60
2022-10-16T01:24:57.293Z,14.40
2022-10-16T01:27:29.986Z,14.30
2022-10-16T01:30:03.370Z,14.20
2022-10-16T01:32:36.817Z,14.20
2022-10-16T01:35:09.994Z,14.10
2022-10-16T01:37:42.513Z,14.00
2022-10-16T01:40:14.674Z,14.00
2022-10-16T01:42:46.789Z,14.00
2022-10-16T01:45:18.964Z,14.00
2022-10-16T01:47:48.635Z,14.00
2022-10-16T01:50:18.823Z,14.00
2022-10-16T01:52:49.318Z,14.00
2022-10-16T01:55:22.896Z,14.00
2022-10-16T01:57:53.256Z,14.00
2022-10-16T02:00:27.902Z,14.00
2022-10-16T02:02:57.253Z,14.00
2022-10-16T02:05:29.708Z,14.10
2022-10-16T02:07:59.398Z,14.10
2022-10-16T02:10:32.200Z,14.10
2022-10-16T02:13:07.240Z,14.20
2022-10-16T02:15:35.032Z,14.30
2022-10-16T02:18:03.694Z,14.40
2022-10-16T02:20:37.617Z,14.30
2022-10-16T02:23:05.895Z,14.30
2022-10-16T02:25:37.050Z,14.20
2022-10-16T02:28:10.563Z,14.10
2022-10-16T02:30:43.280Z,14.20
2022-10-16T02:33:14.539Z,14.30
2022-10-16T02:35:43.644Z,14.50
2022-10-16T02:38:12.501Z,14.70
2022-10-16T02:40:40.553Z,14.80
2022-10-16T02:43:10.586Z,14.70
2022-10-16T02:45:38.584Z,14.50
2022-10-16T02:48:06.974Z,14.40
2022-10-16T02:50:34.815Z,14.30
2022-10-16T02:53:02.820Z,14.10
2022-10-16T02:55:30.612Z,14.00
2022-10-16T02:57:58.390Z,13.90
2022-10-16T03:00:27.585Z,13.80
2022-10-16T03:02:55.366Z,13.80
2022-10-16T03:05:23.259Z,13.80
2022-10-16T03:07:51.035Z,13.90
2022-10-16T03:10:18.808Z,14.00
2022-10-16T03:12:46.578Z,14.00
2022-10-16T03:15:14.431Z,14.00
2022-10-16T03:17:44.078Z,14.00
2022-10-16T03:20:12.299Z,14.00
2022-10-16T03:22:40.073Z,14.10
2022-10-16T03:25:08.788Z,14.20
2022-10-16T03:27:36.590Z,14.20
2022-10-16T03:30:04.904Z,14.20
2022-10-16T03:32:32.758Z,14.20
2022-10-16T03:35:01.916Z,14.30
2022-10-16T03:37:29.968Z,14.40
2022-10-16T03:39:57.820Z,14.40
2022-10-16T03:42:25.618Z,14.40
2022-10-16T03:44:53.386Z,14.50
2022-10-16T03:47:22.778Z,14.40
2022-10-16T03:49:50.819Z,14.40
2022-10-16T03:54:52.663Z,14.50
2022-10-16T03:57:21.578Z,14.60
2022-10-16T03:59:49.408Z,14.70
2022-10-16T04:02:17.258Z,14.60
2022-10-16T04:04:45.030Z,14.50
2022-10-16T04:07:12.842Z,14.40
2022-10-16T04:09:42.038Z,14.30
2022-10-16T04:12:10.171Z,14.10
2022-10-16T04:14:37.943Z,14.00
2022-10-16T04:17:05.738Z,14.00
2022-10-16T04:19:33.539Z,14.10
2022-10-16T04:22:01.292Z,14.20
2022-10-16T04:24:29.087Z,14.20
2022-10-16T04:26:58.215Z,14.20
2022-10-16T04:29:26.221Z,14.20
2022-10-16T04:31:54.098Z,14.20
2022-10-16T04:34:21.904Z,14.40
2022-10-16T04:36:50.417Z,14.70
2022-10-16T04:39:19.164Z,14.60
2022-10-16T04:41:47.006Z,14.40
2022-10-16T04:44:16.310Z,14.30
2022-10-16T04:46:45.280Z,14.30
2022-10-16T04:49:13.104Z,14.40
2022-10-16T04:51:40.905Z,14.50
2022-10-16T04:54:08.696Z,14.50
2022-10-16T04:56:41.141Z,14.30
2022-10-16T04:59:08.926Z,14.20
2022-10-16T05:01:38.073Z,14.00
2022-10-16T05:04:05.890Z,13.90
2022-10-16T05:06:33.787Z,13.70
2022-10-16T05:09:01.737Z,13.60
2022-10-16T05:11:29.716Z,13.50
2022-10-16T05:13:57.569Z,13.50
2022-10-16T05:16:25.445Z,13.50
2022-10-16T05:18:59.998Z,13.50
2022-10-16T05:21:32.200Z,13.40
2022-10-16T05:23:59.995Z,13.30
2022-10-16T05:26:27.752Z,13.20
2022-10-16T05:28:55.557Z,13.10
2022-10-16T05:31:23.389Z,13.00
2022-10-16T05:33:51.284Z,13.00
2022-10-16T05:36:20.417Z,13.00
2022-10-16T05:38:48.185Z,13.00
2022-10-16T05:41:15.956Z,13.00
2022-10-16T05:43:43.729Z,13.00
2022-10-16T05:46:11.466Z,13.00
2022-10-16T05:48:39.268Z,13.00
2022-10-16T05:51:10.913Z,13.00
2022-10-16T05:53:41.540Z,13.30
2022-10-16T05:56:12.040Z,13.60
2022-10-16T05:58:41.362Z,13.80
2022-10-16T06:01:11.904Z,13.80
2022-10-16T06:03:40.163Z,13.60
2022-10-16T06:06:12.539Z,13.50
2022-10-16T06:08:42.489Z,13.40
2022-10-16T06:11:12.206Z,13.30
2022-10-16T06:13:42.742Z,13.30
2022-10-16T06:16:11.585Z,13.30
2022-10-16T06:18:43.150Z,13.30
2022-10-16T06:21:12.338Z,13.40
2022-10-16T06:23:41.520Z,13.50
2022-10-16T06:26:10.313Z,13.60
2022-10-16T06:28:38.381Z,13.70
2022-10-16T06:31:08.478Z,13.70
2022-10-16T06:33:37.141Z,13.70
2022-10-16T06:36:06.345Z,13.80
2022-10-16T06:38:34.327Z,13.80
2022-10-16T06:41:03.619Z,13.90
2022-10-16T06:43:33.452Z,14.00
2022-10-16T06:46:02.137Z,14.10
2022-10-16T06:48:30.854Z,14.10
2022-10-16T06:51:00.265Z,14.20
2022-10-16T06:53:29.327Z,14.30
2022-10-16T06:55:57.155Z,14.40
2022-10-16T06:58:26.612Z,14.40
2022-10-16T07:00:58.082Z,14.50
2022-10-16T07:03:25.969Z,14.60
2022-10-16T07:05:53.808Z,14.60
2022-10-16T07:08:21.567Z,14.60
2022-10-16T07:10:49.393Z,14.60
2022-10-16T07:13:17.168Z,14.60
2022-10-16T07:15:46.606Z,14.60
2022-10-16T07:18:14.347Z,14.80
2022-10-16T07:20:42.097Z,14.90
2022-10-16T07:23:09.920Z,14.90
2022-10-16T07:25:37.804Z,15.00
2022-10-16T07:28:06.396Z,15.00
2022-10-16T07:30:37.389Z,15.20
2022-10-16T07:33:06.643Z,15.30
2022-10-16T07:35:34.382Z,15.40
2022-10-16T07:38:02.203Z,15.60
2022-10-16T07:40:30.013Z,15.70
2022-10-16T07:42:58.103Z,15.80
2022-10-16T07:45:25.866Z,15.80
2022-10-16T07:47:53.659Z,15.90
2022-10-16T07:50:22.804Z,16.00
2022-10-16T07:52:50.597Z,16.00
2022-10-16T07:55:18.422Z,16.10
2022-10-16T07:57:46.221Z,16.40
2022-10-16T08:00:15.849Z,16.50
2022-10-16T08:02:43.609Z,16.80
2022-10-16T08:05:11.388Z,17.00
2022-10-16T08:07:40.488Z,17.00
2022-10-16T08:10:08.925Z,17.30
2022-10-16T08:12:36.677Z,17.40
2022-10-16T08:15:04.764Z,17.50
2022-10-16T08:17:32.525Z,17.50
2022-10-16T08:20:00.296Z,17.70
2022-10-16T08:22:28.133Z,17.70
2022-10-16T08:24:57.300Z,17.70
2022-10-16T08:27:25.396Z,17.80
2022-10-16T08:29:53.363Z,17.90
2022-10-16T08:32:24.013Z,18.10
2022-10-16T08:34:54.674Z,18.40
2022-10-16T08:37:22.427Z,18.60
2022-10-16T08:39:50.199Z,18.80
2022-10-16T08:42:31.709Z,18.90
2022-10-16T08:45:23.598Z,19.10
2022-10-16T08:47:58.210Z,19.30
2022-10-16T08:50:28.923Z,19.50
2022-10-16T08:52:57.488Z,19.70
2022-10-16T08:55:35.120Z,19.70
2022-10-16T08:58:11.457Z,19.60
2022-10-16T09:00:40.438Z,19.60
2022-10-16T09:03:19.102Z,19.50
2022-10-16T09:06:08.923Z,19.40
2022-10-16T09:08:45.853Z,19.40
2022-10-16T09:11:22.427Z,19.60
2022-10-16T09:14:00.419Z,19.60
2022-10-16T09:16:33.032Z,19.60
2022-10-16T09:19:07.816Z,19.50
2022-10-16T09:21:40.254Z,19.60
2022-10-16T09:24:15.367Z,19.70
2022-10-16T09:26:43.224Z,19.70
2022-10-16T09:29:14.251Z,19.70
2022-10-16T09:31:43.213Z,19.90
2022-10-16T09:34:19.921Z,20.00
2022-10-16T09:36:48.537Z,20.10
2022-10-16T09:39:16.351Z,20.10
2022-10-16T09:41:46.051Z,20.10
2022-10-16T09:44:23.332Z,20.20
2022-10-16T09:46:51.160Z,19.90
2022-10-16T09:49:23.505Z,19.70
2022-10-16T09:51:51.988Z,19.70
2022-10-16T09:54:21.655Z,19.60
2022-10-16T09:56:52.653Z,19.50
2022-10-16T09:59:24.764Z,19.40
2022-10-16T10:01:54.829Z,19.30
2022-10-16T10:04:24.069Z,19.30
2022-10-16T10:06:54.027Z,19.40
2022-10-16T10:09:25.322Z,19.40
2022-10-16T10:11:55.806Z,19.40
2022-10-16T10:14:32.333Z,19.50
2022-10-16T10:17:15.777Z,19.50
2022-10-16T10:19:49.351Z,19.60
2022-10-16T10:22:26.944Z,19.50
2022-10-16T10:25:09.646Z,19.50
2022-10-16T10:27:48.357Z,19.50
2022-10-16T10:30:24.675Z,19.60
2022-10-16T10:33:07.910Z,19.60
2022-10-16T10:35:44.040Z,19.50
2022-10-16T10:38:25.240Z,19.60
2022-10-16T10:40:59.374Z,19.50
2022-10-16T10:43:41.465Z,19.50
2022-10-16T10:46:16.026Z,19.60
2022-10-16T10:48:56.305Z,19.60
2022-10-16T10:51:30.988Z,19.80
2022-10-16T10:54:11.689Z,19.90
2022-10-16T10:56:52.960Z,20.00
2022-10-16T10:59:43.536Z,20.00
2022-10-16T11:02:22.073Z,20.20
2022-10-16T11:05:23.496Z,20.60
2022-10-16T11:07:55.237Z,20.80
2022-10-16T11:10:26.946Z,20.80
2022-10-16T11:13:00.438Z,20.70
2022-10-16T11:15:33.089Z,20.90
2022-10-16T11:18:08.195Z,21.10
2022-10-16T11:20:41.577Z,21.20
2022-10-16T11:23:17.258Z,21.40
2022-10-16T11:25:45.891Z,21.60
2022-10-16T11:28:16.428Z,21.70
2022-10-16T11:30:48.353Z,21.70
2022-10-16T11:33:37.047Z,21.70
2022-10-16T11:36:13.625Z,21.70
2022-10-16T11:38:48.800Z,21.70
2022-10-16T11:41:24.223Z,21.60
2022-10-16T11:43:59.795Z,21.50
2022-10-16T11:46:29.413Z,21.70
2022-10-16T11:49:05.739Z,21.80
2022-10-16T11:51:38.724Z,21.70
2022-10-16T11:54:16.391Z,21.90
2022-10-16T11:56:47.339Z,21.70
2022-10-16T11:59:23.664Z,21.30
2022-10-16T12:01:56.682Z,21.10
2022-10-16T12:04:34.566Z,21.10
2022-10-16T12:07:07.637Z,21.10
2022-10-16T12:09:39.429Z,21.10
2022-10-16T12:12:25.450Z,21.30
2022-10-16T12:15:17.520Z,21.20
2022-10-16T12:17:50.096Z,21.20
2022-10-16T12:20:26.960Z,21.30
2022-10-16T12:22:57.165Z,21.40
2022-10-16T12:25:29.126Z,21.70
2022-10-16T12:28:02.984Z,21.90
2022-10-16T12:30:35.900Z,22.20
2022-10-16T12:33:05.831Z,22.50
2022-10-16T12:35:37.745Z,22.30
2022-10-16T12:40:45.208Z,22.60
2022-10-16T12:43:15.251Z,22.60
2022-10-16T12:45:43.039Z,22.40
2022-10-16T12:48:24.566Z,22.30
2022-10-16T12:50:58.820Z,22.40
2022-10-16T12:53:29.129Z,22.60
2022-10-16T12:56:08.917Z,22.80
2022-10-16T12:58:49.807Z,22.90
2022-10-16T13:01:30.584Z,23.10
2022-10-16T13:04:24.859Z,23.30
2022-10-16T13:07:02.845Z,23.40
2022-10-16T13:09:45.712Z,23.30
2022-10-16T13:12:27.747Z,23.30
2022-10-16T13:15:09.976Z,23.20
2022-10-16T13:17:47.378Z,23.00
2022-10-16T13:20:23.073Z,22.90
2022-10-16T13:23:02.697Z,22.90
2022-10-16T13:25:44.061Z,22.80
2022-10-16T13:28:14.229Z,22.70
2022-10-16T13:30:44.786Z,22.70
2022-10-16T13:33:17.929Z,22.50
2022-10-16T13:35:51.809Z,22.40
2022-10-16T13:38:23.021Z,22.30
2022-10-16T13:40:53.194Z,22.30
2022-10-16T13:43:24.075Z,22.40
2022-10-16T13:45:59.970Z,22.80
2022-10-16T13:48:28.104Z,23.00
2022-10-16T13:51:07.725Z,23.10
2022-10-16T13:53:37.865Z,22.80
2022-10-16T13:56:08.579Z,22.80
2022-10-16T13:58:36.440Z,23.10
2022-10-16T14:01:07.619Z,23.10
2022-10-16T14:03:37.598Z,23.00
2022-10-16T14:06:09.883Z,23.10
2022-10-16T14:08:39.126Z,23.20
2022-10-16T14:11:06.991Z,23.20
2022-10-16T14:13:39.200Z,23.10
2022-10-16T14:16:10.898Z,22.90
2022-10-16T14:18:40.830Z,22.70
2022-10-16T14:21:14.340Z,22.70
2022-10-16T14:23:43.712Z,22.60
2022-10-16T14:26:16.732Z,22.50
2022-10-16T14:28:46.084Z,22.40
2022-10-16T14:31:28.135Z,22.40
2022-10-16T14:33:56.595Z,22.20
2022-10-16T14:36:25.553Z,22.20
2022-10-16T14:39:05.258Z,22.10
2022-10-16T14:41:35.015Z,22.00
2022-10-16T14:44:06.147Z,22.00
2022-10-16T14:46:37.410Z,21.80
2022-10-16T14:49:22.667Z,21.70
2022-10-16T14:51:50.460Z,21.70
2022-10-16T14:54:20.871Z,21.50
2022-10-16T14:56:51.512Z,21.40
2022-10-16T14:59:24.018Z,21.40
2022-10-16T15:01:52.080Z,21.40
2022-10-16T15:04:19.834Z,21.40
2022-10-16T15:06:48.100Z,21.40
2022-10-16T15:09:16.129Z,21.50
2022-10-16T15:11:45.482Z,21.50
2022-10-16T15:16:47.816Z,21.40
2022-10-16T15:19:15.597Z,21.40
2022-10-16T15:21:44.501Z,21.30
2022-10-16T15:24:17.808Z,21.20
2022-10-16T15:26:50.294Z,21.20
2022-10-16T15:29:18.322Z,21.10
2022-10-16T15:31:48.344Z,21.10
2022-10-16T15:34:16.456Z,21.10
2022-10-16T15:36:44.215Z,21.00
2022-10-16T15:39:15.702Z,20.90
2022-10-16T15:41:43.839Z,20.80
2022-10-16T15:44:13.024Z,20.70
2022-10-16T15:46:40.809Z,20.60
2022-10-16T15:49:08.604Z,20.50
2022-10-16T15:51:40.191Z,20.30
2022-10-16T15:54:08.000Z,20.40
2022-10-16T15:56:37.780Z,20.30
2022-10-16T15:59:06.446Z,20.20
2022-10-16T16:01:36.283Z,20.10
2022-10-16T16:04:11.096Z,19.80
2022-10-16T16:06:45.858Z,19.60
2022-10-16T16:09:14.438Z,19.30
2022-10-16T16:11:42.377Z,19.10
2022-10-16T16:14:13.805Z,18.80
2022-10-16T16:16:42.964Z,18.70
2022-10-16T16:19:11.837Z,18.60
2022-10-16T16:21:40.590Z,18.60
2022-10-16T16:24:09.236Z,18.50
2022-10-16T16:26:40.753Z,18.50
2022-10-16T16:29:09.257Z,18.50
2022-10-16T16:31:37.087Z,18.50
2022-10-16T16:34:06.223Z,18.40
2022-10-16T16:36:34.463Z,18.30
2022-10-16T16:39:02.703Z,18.30
2022-10-16T16:41:32.297Z,18.10
2022-10-16T16:44:04.059Z,18.00
2022-10-16T16:46:33.289Z,18.20
2022-10-16T16:49:01.428Z,18.20
2022-10-16T16:51:30.832Z,18.10
2022-10-16T16:53:58.672Z,17.90
2022-10-16T16:56:27.656Z,17.80
2022-10-16T16:58:57.038Z,17.60
2022-10-16T17:01:26.653Z,17.40
2022-10-16T17:03:56.980Z,17.30
2022-10-16T17:06:27.320Z,17.20
2022-10-16T17:08:56.454Z,17.00
2022-10-16T17:11:26.892Z,16.90
2022-10-16T17:13:57.113Z,16.80
2022-10-16T17:16:26.365Z,16.80
2022-10-16T17:18:54.222Z,16.90
2022-10-16T17:21:22.624Z,16.70
2022-10-16T17:23:53.560Z,16.50
2022-10-16T17:26:22.734Z,16.30
2022-10-16T17:28:53.561Z,16.10
2022-10-16T17:31:23.042Z,16.20
2022-10-16T17:33:51.583Z,16.40
2022-10-16T17:36:20.469Z,16.50
2022-10-16T17:38:48.310Z,16.60
2022-10-16T17:41:18.300Z,16.70
2022-10-16T17:43:48.178Z,16.60
2022-10-16T17:46:17.963Z,16.70
2022-10-16T17:48:48.443Z,16.70
2022-10-16T17:51:19.003Z,16.70
2022-10-16T17:53:50.166Z,16.80
2022-10-16T17:56:17.959Z,17.00
2022-10-16T17:58:51.571Z,17.20
2022-10-16T18:01:21.828Z,17.30
2022-10-16T18:03:51.216Z,17.30
2022-10-16T18:06:22.660Z,17.20
2022-10-16T18:08:51.201Z,17.20
2022-10-16T18:11:19.254Z,17.20
2022-10-16T18:13:48.809Z,17.30
2022-10-16T18:16:17.092Z,17.10
2022-10-16T18:18:45.715Z,17.00
2022-10-16T18:21:15.984Z,17.30
2022-10-16T18:23:49.218Z,16.90
2022-10-16T18:26:21.133Z,17.10
2022-10-16T18:28:53.461Z,16.90
2022-10-16T18:31:22.931Z,16.40
2022-10-16T18:33:51.375Z,16.20
2022-10-16T18:36:21.329Z,16.00
2022-10-16T18:38:49.661Z,15.80
2022-10-16T18:41:17.726Z,15.80
2022-10-16T18:43:45.523Z,15.50
2022-10-16T18:46:17.240Z,15.50
2022-10-16T18:48:46.791Z,15.30
2022-10-16T18:51:17.216Z,15.20
2022-10-16T18:53:46.772Z,15.00
2022-10-16T18:56:15.943Z,15.10
2022-10-16T18:58:44.900Z,15.70
2022-10-16T19:01:17.008Z,15.90
2022-10-16T19:03:45.111Z,15.60
2022-10-16T19:06:15.620Z,15.40
2022-10-16T19:08:44.285Z,15.40
2022-10-16T19:11:14.921Z,15.40
2022-10-16T19:13:42.767Z,15.20
2022-10-16T19:16:21.265Z,15.70
2022-10-16T19:18:52.471Z,15.80
2022-10-16T19:21:20.349Z,15.40
2022-10-16T19:23:51.767Z,15.30
2022-10-16T19:26:20.273Z,15.70
2022-10-16T19:28:48.199Z,15.90
2022-10-16T19:31:18.428Z,16.20
2022-10-16T19:33:46.826Z,16.50
2022-10-16T19:36:18.191Z,16.80
2022-10-16T19:38:47.413Z,16.80
2022-10-16T19:41:16.935Z,16.80
2022-10-16T19:43:45.893Z,16.90
2022-10-16T19:46:15.401Z,17.30
2022-10-16T19:48:43.920Z,17.30
2022-10-16T19:51:19.436Z,17.40
2022-10-16T19:53:48.027Z,17.50
2022-10-16T19:56:17.263Z,17.50
2022-10-16T19:58:46.505Z,17.50
2022-10-16T20:01:15.617Z,17.40
2022-10-16T20:03:44.838Z,17.40
2022-10-16T20:06:13.109Z,17.50
2022-10-16T20:08:44.347Z,17.60
2022-10-16T20:11:14.860Z,17.60
2022-10-16T20:13:42.725Z,17.60
2022-10-16T20:16:11.886Z,17.60
2022-10-16T20:18:39.819Z,17.30
2022-10-16T20:21:11.105Z,16.90
2022-10-16T20:23:39.016Z,16.40
2022-10-16T20:26:11.261Z,16.00
2022-10-16T20:28:41.510Z,15.90
2022-10-16T20:31:11.993Z,15.90
2022-10-16T20:33:40.895Z,15.60
2022-10-16T20:36:12.248Z,15.40
2022-10-16T20:38:40.142Z,15.20
2022-10-16T20:41:09.811Z,15.10
2022-10-16T20:43:41.074Z,15.10
2022-10-16T20:46:10.950Z,14.80
2022-10-16T20:48:41.034Z,14.90
2022-10-16T20:51:13.485Z,14.90
2022-10-16T20:53:41.327Z,14.70
2022-10-16T20:56:12.039Z,14.50
2022-10-16T20:58:41.363Z,14.40
2022-10-16T21:01:10.857Z,14.20
2022-10-16T21:03:38.964Z,14.50
2022-10-16T21:06:08.760Z,15.00
2022-10-16T21:08:37.151Z,15.70
2022-10-16T21:11:12.866Z,16.70
2022-10-16T21:13:40.870Z,17.00
2022-10-16T21:16:09.695Z,17.00
2022-10-16T21:18:40.803Z,17.10
2022-10-16T21:21:12.985Z,17.30
2022-10-16T21:23:40.776Z,17.50
2022-10-16T21:26:08.812Z,17.60
2022-10-16T21:28:37.964Z,17.80
2022-10-16T21:31:12.793Z,17.80
2022-10-16T21:33:41.496Z,17.60
2022-10-16T21:36:17.287Z,17.60
2022-10-16T21:41:20.329Z,17.50
2022-10-16T21:43:50.083Z,17.80
2022-10-16T21:46:19.355Z,17.70
2022-10-16T21:48:47.473Z,17.70
2022-10-16T21:51:16.109Z,17.60
2022-10-16T21:53:43.925Z,17.50
2022-10-16T21:56:15.427Z,17.40
2022-10-16T21:58:43.963Z,17.20
2022-10-16T22:01:14.823Z,17.20
2022-10-16T22:03:42.748Z,16.80
2022-10-16T22:06:11.822Z,16.20
2022-10-16T22:08:40.508Z,15.80
2022-10-16T22:11:10.305Z,15.60
2022-10-16T22:13:38.295Z,15.30
2022-10-16T22:16:06.755Z,15.10
2022-10-16T22:18:36.973Z,14.60
2022-10-16T22:21:06.660Z,14.40
2022-10-16T22:23:34.681Z,14.10
2022-10-16T22:26:03.705Z,13.90
2022-10-16T22:28:31.582Z,13.70
2022-10-16T22:31:02.396Z,13.70
2022-10-16T22:33:30.269Z,13.60
2022-10-16T22:36:01.577Z,13.50
2022-10-16T22:38:30.743Z,13.50
2022-10-16T22:41:03.078Z,13.40
2022-10-16T22:43:30.906Z,13.40
2022-10-16T22:46:03.493Z,13.50
2022-10-16T22:48:31.312Z,13.80
2022-10-16T22:51:00.522Z,14.10
2022-10-16T22:53:28.654Z,14.10
2022-10-16T22:55:56.584Z,14.00
2022-10-16T22:58:24.715Z,14.10
2022-10-16T23:00:52.828Z,14.10
2022-10-16T23:03:20.774Z,14.10
2022-10-16T23:05:48.658Z,14.00
2022-10-16T23:08:17.779Z,13.90
2022-10-16T23:10:47.592Z,13.80
2022-10-16T23:13:15.486Z,13.60
2022-10-16T23:15:44.423Z,13.70
2022-10-16T23:18:12.537Z,13.70
2022-10-16T23:20:41.419Z,13.70
2022-10-16T23:23:09.613Z,13.80
2022-10-16T23:25:45.350Z,13.70
2022-10-16T23:28:13.284Z,13.50
2022-10-16T23:30:41.060Z,13.30
2022-10-16T23:33:08.856Z,13.10
2022-10-16T23:35:40.455Z,12.90
2022-10-16T23:38:08.329Z,13.00
2022-10-16T23:40:36.096Z,13.00
2022-10-16T23:43:05.211Z,13.00
2022-10-16T23:45:32.964Z,12.90
2022-10-16T23:48:00.748Z,13.00
2022-10-16T23:50:30.325Z,13.20
2022-10-16T23:52:58.208Z,13.20
2022-10-16T23:55:26.084Z,13.20
2022-10-16T23:57:53.890Z,13.20
